Time;durP1;ratioP1;P1;durP2;ratioP2;P2;SDS_P1;SDS_P2;PMS_P1;PMS_P2;Temp;Humidity;BMP_temperature;BMP_pressure;BME280_temperature;BME280_humidity;BME280_pressure;Samples;Min_cycle;Max_cycle;Signal;HPM_P1;HPM_P2
2024/01/31 00:00:22;;;;;;;0.65;0.20;;;6.30;99.90;;;;;;5009300;28;20040;-73
2024/01/31 00:02:48;;;;;;;0.20;0.15;;;6.20;99.90;;;;;;5010388;28;20117;-73
2024/01/31 00:05:14;;;;;;;0.25;0.10;;;6.20;99.90;;;;;;5010304;28;20519;-73
2024/01/31 00:07:41;;;;;;;0.88;0.30;;;6.20;99.90;;;;;;5009418;28;20070;-73
2024/01/31 00:10:14;;;;;;;0.35;0.10;;;6.20;99.90;;;;;;5010047;28;20046;-73
2024/01/31 00:12:42;;;;;;;0.98;0.20;;;6.30;99.90;;;;;;4993267;28;20040;-73
2024/01/31 00:15:08;;;;;;;0.20;0.10;;;6.30;99.90;;;;;;5010327;28;20120;-73
2024/01/31 00:17:34;;;;;;;0.10;0.10;;;6.30;99.90;;;;;;5009274;28;20038;-73
2024/01/31 00:19:59;;;;;;;0.10;0.10;;;6.20;99.90;;;;;;5010312;28;20085;-73
2024/01/31 00:22:25;;;;;;;0.30;0.08;;;6.20;99.90;;;;;;5010264;28;20065;-73
2024/01/31 00:24:51;;;;;;;0.25;0.10;;;6.20;99.90;;;;;;5009898;28;20065;-73
2024/01/31 00:27:16;;;;;;;0.82;0.20;;;6.20;99.90;;;;;;5010025;28;20048;-73
2024/01/31 00:29:42;;;;;;;0.10;0.10;;;6.20;99.90;;;;;;5013814;28;20042;-73
2024/01/31 00:32:08;;;;;;;0.63;0.10;;;6.20;99.90;;;;;;4996276;28;20455;-73
2024/01/31 00:34:34;;;;;;;0.08;0.08;;;6.20;99.90;;;;;;5012615;28;20045;-73
2024/01/31 00:37:00;;;;;;;2.55;0.22;;;6.20;99.90;;;;;;5013433;28;20373;-73
2024/01/31 00:39:31;;;;;;;3.00;0.30;;;6.20;99.90;;;;;;5013347;28;20050;-73
2024/01/31 00:41:56;;;;;;;0.95;0.30;;;6.20;99.90;;;;;;5012162;28;20092;-73
2024/01/31 00:44:22;;;;;;;0.10;0.10;;;6.10;99.90;;;;;;5013547;28;20041;-73
2024/01/31 00:46:48;;;;;;;2.03;0.17;;;6.10;99.90;;;;;;5011995;28;20534;-73
2024/01/31 00:49:14;;;;;;;0.98;0.17;;;6.10;99.90;;;;;;5013288;28;20038;-73
2024/01/31 00:51:44;;;;;;;0.65;0.20;;;6.10;99.90;;;;;;5013489;28;20046;-73
2024/01/31 00:54:10;;;;;;;2.78;0.30;;;6.10;99.90;;;;;;5013369;28;20095;-73
2024/01/31 00:56:36;;;;;;;0.43;0.20;;;6.10;99.90;;;;;;4995799;28;20088;-73
2024/01/31 00:59:02;;;;;;;1.55;0.43;;;6.00;99.90;;;;;;5011995;28;20229;-73
2024/01/31 01:01:27;;;;;;;1.02;0.40;;;6.10;99.90;;;;;;5013199;28;20117;-73
2024/01/31 01:03:53;;;;;;;0.30;0.20;;;6.10;99.90;;;;;;5013120;28;20048;-73
2024/01/31 01:06:18;;;;;;;2.55;0.20;;;6.10;99.90;;;;;;5012799;28;20048;-73
2024/01/31 01:08:44;;;;;;;0.22;0.10;;;6.10;99.90;;;;;;5011785;28;20046;-73
2024/01/31 01:11:10;;;;;;;0.30;0.10;;;6.10;99.90;;;;;;5012106;28;20053;-73
2024/01/31 01:13:35;;;;;;;0.17;0.08;;;6.10;99.90;;;;;;5028122;28;20041;-73
2024/01/31 01:16:01;;;;;;;0.50;0.20;;;6.10;99.90;;;;;;5012728;28;20049;-73
2024/01/31 01:18:27;;;;;;;3.33;0.40;;;6.10;99.90;;;;;;5011525;28;20041;-73
2024/01/31 01:20:52;;;;;;;1.05;0.30;;;6.10;99.90;;;;;;5012548;28;20042;-73
2024/01/31 01:23:18;;;;;;;0.47;0.15;;;6.10;99.90;;;;;;5012847;28;20036;-73
2024/01/31 01:25:44;;;;;;;0.25;0.13;;;6.10;99.90;;;;;;5027979;28;20093;-73
2024/01/31 01:28:09;;;;;;;0.90;0.15;;;6.10;99.90;;;;;;5012673;28;20042;-73
2024/01/31 01:30:35;;;;;;;0.73;0.20;;;6.10;99.90;;;;;;5012520;28;20037;-73
2024/01/31 01:33:01;;;;;;;0.55;0.10;;;6.00;99.90;;;;;;5012460;28;20038;-73
2024/01/31 01:35:26;;;;;;;3.90;0.57;;;6.00;99.90;;;;;;5011176;28;20125;-73
2024/01/31 01:37:52;;;;;;;3.92;0.63;;;6.00;99.90;;;;;;5011892;28;20041;-73
2024/01/31 01:40:18;;;;;;;0.00;0.00;;;6.00;99.90;;;;;;5012545;28;20045;-73
2024/01/31 01:42:44;;;;;;;0.30;0.17;;;6.00;99.90;;;;;;5012480;28;20056;-73
2024/01/31 01:45:11;;;;;;;0.20;0.13;;;6.00;99.90;;;;;;5011141;28;20564;-73
2024/01/31 01:47:42;;;;;;;0.88;0.30;;;6.00;99.90;;;;;;5012213;28;20038;-73
2024/01/31 01:50:09;;;;;;;0.00;0.00;;;6.00;99.90;;;;;;5010902;28;20042;-73
2024/01/31 01:52:37;;;;;;;0.60;0.10;;;6.00;99.90;;;;;;5012298;28;20053;-73
2024/01/31 01:55:04;;;;;;;1.75;0.20;;;6.00;99.90;;;;;;5027267;28;20053;-73
2024/01/31 01:57:33;;;;;;;2.40;0.50;;;6.00;99.90;;;;;;5012275;28;20052;-73
2024/01/31 01:59:59;;;;;;;1.52;0.30;;;6.00;99.90;;;;;;5012121;28;20396;-73
2024/01/31 02:02:26;;;;;;;0.95;0.30;;;6.00;99.90;;;;;;5012383;28;20041;-73
2024/01/31 02:04:52;;;;;;;0.30;0.00;;;6.00;99.90;;;;;;5011774;28;20121;-73
2024/01/31 02:07:25;;;;;;;0.25;0.13;;;6.00;99.90;;;;;;5011979;28;20073;-73
2024/01/31 02:09:52;;;;;;;1.02;0.20;;;6.00;99.90;;;;;;5011864;28;20172;-73
2024/01/31 02:12:18;;;;;;;0.20;0.10;;;6.00;99.90;;;;;;5011902;28;20046;-73
2024/01/31 02:14:47;;;;;;;0.88;0.17;;;6.00;99.90;;;;;;5011715;28;20034;-73
2024/01/31 02:17:14;;;;;;;1.02;0.20;;;6.00;99.90;;;;;;5026539;28;20046;-73
2024/01/31 02:19:39;;;;;;;0.38;0.20;;;6.00;99.90;;;;;;5010909;28;20034;-73
2024/01/31 02:22:06;;;;;;;0.10;0.08;;;6.00;99.90;;;;;;5011817;28;20092;-73
2024/01/31 02:24:31;;;;;;;1.02;0.10;;;6.00;99.90;;;;;;5011722;28;20407;-73
2024/01/31 02:26:57;;;;;;;0.20;0.10;;;6.00;99.90;;;;;;5011439;28;20124;-73
2024/01/31 02:29:23;;;;;;;2.53;0.20;;;6.00;99.90;;;;;;5011343;28;20080;-73
2024/01/31 02:31:48;;;;;;;0.28;0.10;;;6.00;99.90;;;;;;5011338;28;20125;-73
2024/01/31 02:34:14;;;;;;;0.22;0.22;;;6.00;99.90;;;;;;5011305;28;20396;-73
2024/01/31 02:36:39;;;;;;;1.48;0.10;;;6.00;99.90;;;;;;5011732;28;20037;-73
2024/01/31 02:39:05;;;;;;;1.10;0.10;;;6.00;99.90;;;;;;5011443;28;20092;-73
2024/01/31 02:41:30;;;;;;;2.55;0.10;;;5.90;99.90;;;;;;5011365;28;20058;-73
2024/01/31 02:43:57;;;;;;;0.13;0.10;;;5.90;99.90;;;;;;5011260;28;20479;-73
2024/01/31 02:46:22;;;;;;;0.10;0.03;;;5.90;99.90;;;;;;5009798;28;20144;-73
2024/01/31 02:48:48;;;;;;;1.52;0.20;;;5.80;99.90;;;;;;5011256;28;20037;-73
2024/01/31 02:51:14;;;;;;;1.67;0.25;;;5.80;99.90;;;;;;5010552;28;20046;-73
2024/01/31 02:53:40;;;;;;;0.17;0.17;;;5.80;99.90;;;;;;5010159;28;20100;-73
2024/01/31 02:56:08;;;;;;;0.20;0.17;;;5.70;99.90;;;;;;5011558;28;20149;-73
2024/01/31 02:58:35;;;;;;;0.15;0.10;;;5.70;99.90;;;;;;5011204;28;20041;-73
2024/01/31 03:01:00;;;;;;;0.52;0.10;;;5.60;99.90;;;;;;5010730;28;20057;-73
2024/01/31 03:03:26;;;;;;;0.10;0.00;;;5.60;99.90;;;;;;5011354;28;20483;-73
2024/01/31 03:05:52;;;;;;;0.25;0.10;;;5.60;99.90;;;;;;5011356;28;20065;-73
2024/01/31 03:08:17;;;;;;;0.63;0.20;;;5.60;99.90;;;;;;5010998;28;20066;-73
2024/01/31 03:10:44;;;;;;;1.00;0.20;;;5.60;99.90;;;;;;5011006;28;20066;-73
2024/01/31 03:13:11;;;;;;;0.60;0.05;;;5.60;99.90;;;;;;5010999;28;20456;-73
2024/01/31 03:15:36;;;;;;;0.17;0.10;;;5.60;99.90;;;;;;5010802;28;20050;-73
2024/01/31 03:18:02;;;;;;;0.50;0.03;;;5.60;99.90;;;;;;5010931;28;20041;-73
2024/01/31 03:20:28;;;;;;;1.10;0.20;;;5.60;99.90;;;;;;5009869;28;20073;-73
2024/01/31 03:22:53;;;;;;;0.50;0.10;;;5.50;99.90;;;;;;5010929;28;20050;-73
2024/01/31 03:25:19;;;;;;;0.13;0.10;;;5.50;99.90;;;;;;5010855;28;20034;-73
2024/01/31 03:27:44;;;;;;;3.63;0.28;;;5.50;99.90;;;;;;5010877;28;20030;-73
2024/01/31 03:30:10;;;;;;;0.28;0.20;;;5.60;99.90;;;;;;5009419;28;20037;-73
2024/01/31 03:32:36;;;;;;;3.10;0.20;;;5.60;99.90;;;;;;5011096;28;20048;-73
2024/01/31 03:35:02;;;;;;;0.85;0.28;;;5.60;99.90;;;;;;5010776;28;20170;-73
2024/01/31 03:37:27;;;;;;;0.90;0.47;;;5.60;99.90;;;;;;5009421;28;20496;-73
2024/01/31 03:39:54;;;;;;;0.55;0.22;;;5.50;99.90;;;;;;5010667;28;20034;-73
2024/01/31 03:42:19;;;;;;;0.20;0.10;;;5.50;99.90;;;;;;5009427;28;20060;-73
2024/01/31 03:44:45;;;;;;;0.50;0.20;;;5.50;99.90;;;;;;5010439;28;20403;-73
2024/01/31 03:47:11;;;;;;;0.20;0.20;;;5.50;99.90;;;;;;5009362;28;20618;-73
2024/01/31 03:49:36;;;;;;;2.05;0.20;;;5.50;99.90;;;;;;5010601;28;20049;-74
2024/01/31 03:52:02;;;;;;;0.57;0.30;;;5.50;99.90;;;;;;5010553;28;20193;-73
2024/01/31 03:54:28;;;;;;;0.13;0.10;;;5.60;99.90;;;;;;5010614;28;20365;-73
2024/01/31 03:56:53;;;;;;;0.75;0.20;;;5.50;99.90;;;;;;5010518;28;20077;-74
2024/01/31 03:59:19;;;;;;;0.05;0.03;;;5.50;99.90;;;;;;5008864;28;20078;-73
2024/01/31 04:01:49;;;;;;;0.57;0.20;;;5.50;99.90;;;;;;5012446;28;20199;-73
2024/01/31 04:04:15;;;;;;;1.77;0.10;;;5.50;99.90;;;;;;5014331;28;20476;-73
2024/01/31 04:06:40;;;;;;;0.68;0.30;;;5.50;99.90;;;;;;5013119;28;20088;-73
2024/01/31 04:09:06;;;;;;;0.32;0.13;;;5.50;99.90;;;;;;5013992;28;20042;-73
2024/01/31 04:11:34;;;;;;;0.22;0.13;;;5.50;99.90;;;;;;5014134;28;20038;-73
2024/01/31 04:14:01;;;;;;;0.57;0.32;;;5.40;99.90;;;;;;5013828;28;20046;-73
2024/01/31 04:16:27;;;;;;;0.20;0.10;;;5.40;99.90;;;;;;5014134;28;20046;-73
2024/01/31 04:18:53;;;;;;;0.17;0.00;;;5.40;99.90;;;;;;5014030;28;20060;-73
2024/01/31 04:21:23;;;;;;;0.30;0.10;;;5.40;99.90;;;;;;5012739;28;20496;-73
2024/01/31 04:23:49;;;;;;;0.00;0.00;;;5.40;99.90;;;;;;5014086;28;20081;-73
2024/01/31 04:26:15;;;;;;;0.00;0.00;;;5.40;99.90;;;;;;5013722;28;20069;-73
2024/01/31 04:28:40;;;;;;;0.77;0.30;;;5.30;99.90;;;;;;5012447;28;20403;-73
2024/01/31 04:31:16;;;;;;;0.28;0.10;;;5.30;99.90;;;;;;5013772;28;20042;-73
2024/01/31 04:33:42;;;;;;;0.22;0.17;;;5.30;99.90;;;;;;5029308;28;20400;-73
2024/01/31 04:36:08;;;;;;;0.65;0.20;;;5.30;99.90;;;;;;5012647;28;20033;-73
2024/01/31 04:38:34;;;;;;;0.00;0.00;;;5.30;99.90;;;;;;5012510;28;20095;-73
2024/01/31 04:41:01;;;;;;;0.32;0.17;;;5.20;99.90;;;;;;5011896;28;20041;-73
2024/01/31 04:43:26;;;;;;;0.08;0.08;;;5.30;99.90;;;;;;5013580;28;20499;-73
2024/01/31 04:45:53;;;;;;;0.40;0.10;;;5.30;99.90;;;;;;5014055;28;20038;-73
2024/01/31 04:48:18;;;;;;;2.13;0.10;;;5.30;99.90;;;;;;5013545;28;20038;-73
2024/01/31 04:50:44;;;;;;;0.00;0.00;;;5.30;99.90;;;;;;5013307;28;20107;-73
2024/01/31 04:53:10;;;;;;;0.32;0.10;;;5.30;99.90;;;;;;5013373;28;20038;-73
2024/01/31 04:55:36;;;;;;;1.02;0.10;;;5.30;99.90;;;;;;5013132;28;20052;-73
2024/01/31 04:58:02;;;;;;;0.10;0.10;;;5.30;99.90;;;;;;5013189;28;20537;-73
2024/01/31 05:00:28;;;;;;;0.10;0.10;;;5.30;99.90;;;;;;5013441;28;20045;-73
2024/01/31 05:02:53;;;;;;;0.73;0.20;;;5.30;99.90;;;;;;5013340;28;20056;-73
2024/01/31 05:05:19;;;;;;;2.72;0.10;;;5.30;99.90;;;;;;5013308;28;20061;-73
2024/01/31 05:07:45;;;;;;;0.40;0.15;;;5.30;99.90;;;;;;5013119;28;20518;-73
2024/01/31 05:10:12;;;;;;;0.15;0.00;;;5.20;99.90;;;;;;5011583;28;20042;-73
2024/01/31 05:12:38;;;;;;;1.20;0.20;;;5.30;99.90;;;;;;5011454;28;20080;-73
2024/01/31 05:15:05;;;;;;;0.50;0.30;;;5.30;99.90;;;;;;5011572;28;20077;-73
2024/01/31 05:17:30;;;;;;;0.40;0.10;;;5.20;99.90;;;;;;5013059;28;20092;-73
2024/01/31 05:19:56;;;;;;;0.10;0.10;;;5.20;99.90;;;;;;5012916;28;20042;-73
2024/01/31 05:22:21;;;;;;;0.00;0.00;;;5.10;99.90;;;;;;5012714;28;20112;-73
2024/01/31 05:24:47;;;;;;;0.15;0.00;;;5.10;99.90;;;;;;5012538;28;20034;-73
2024/01/31 05:27:13;;;;;;;0.20;0.10;;;5.10;99.90;;;;;;5012757;28;20045;-73
2024/01/31 05:29:38;;;;;;;0.47;0.00;;;5.10;99.90;;;;;;5012592;28;20038;-73
2024/01/31 05:32:05;;;;;;;0.45;0.10;;;5.10;99.90;;;;;;5011588;28;20068;-73
2024/01/31 05:34:30;;;;;;;0.08;0.08;;;5.00;99.90;;;;;;5012703;28;20042;-73
2024/01/31 05:36:56;;;;;;;0.13;0.10;;;5.00;99.90;;;;;;5012393;28;20104;-73
2024/01/31 05:39:21;;;;;;;0.30;0.10;;;5.00;99.90;;;;;;5012070;28;20113;-73
2024/01/31 05:41:47;;;;;;;0.63;0.15;;;5.00;99.90;;;;;;5012557;28;20439;-73
2024/01/31 05:44:13;;;;;;;1.05;0.15;;;5.00;99.90;;;;;;5012497;28;20061;-73
2024/01/31 05:46:38;;;;;;;0.93;0.20;;;4.90;99.90;;;;;;5012595;28;20042;-73
2024/01/31 05:49:04;;;;;;;0.10;0.00;;;5.00;99.90;;;;;;5012238;28;20042;-73
2024/01/31 05:51:30;;;;;;;0.55;0.25;;;5.00;99.90;;;;;;5027493;28;20092;-73
2024/01/31 05:53:56;;;;;;;0.00;0.00;;;5.00;99.90;;;;;;4994325;28;20041;-73
2024/01/31 05:56:22;;;;;;;0.32;0.17;;;5.00;99.90;;;;;;5011009;28;20373;-73
2024/01/31 05:58:48;;;;;;;0.20;0.17;;;5.00;99.90;;;;;;5012058;28;20045;-73
2024/01/31 06:01:14;;;;;;;1.48;0.30;;;5.00;99.90;;;;;;5011909;28;20038;-73
2024/01/31 06:03:39;;;;;;;0.00;0.00;;;5.00;99.90;;;;;;5012278;28;20120;-73
2024/01/31 06:06:06;;;;;;;0.45;0.10;;;5.10;99.90;;;;;;5011876;28;20404;-73
2024/01/31 06:08:32;;;;;;;0.80;0.10;;;5.10;99.90;;;;;;5011834;28;20042;-73
2024/01/31 06:11:03;;;;;;;0.22;0.10;;;5.10;99.90;;;;;;5011979;28;20030;-73
2024/01/31 06:13:32;;;;;;;0.30;0.10;;;5.10;99.90;;;;;;4994264;28;20487;-73
2024/01/31 06:15:58;;;;;;;0.32;0.17;;;5.10;99.90;;;;;;5011823;28;20038;-73
2024/01/31 06:18:24;;;;;;;0.10;0.10;;;5.10;99.90;;;;;;5011782;28;20034;-73
2024/01/31 06:20:50;;;;;;;0.47;0.15;;;5.20;99.90;;;;;;4994015;28;20048;-73
2024/01/31 06:23:16;;;;;;;0.40;0.20;;;5.20;99.90;;;;;;5011344;28;20054;-73
2024/01/31 06:25:41;;;;;;;0.10;0.10;;;5.20;99.90;;;;;;5010916;28;20492;-73
2024/01/31 06:28:07;;;;;;;0.30;0.20;;;5.30;99.90;;;;;;5010295;28;20038;-73
2024/01/31 06:30:44;;;;;;;0.10;0.05;;;5.30;99.90;;;;;;5011569;28;20047;-73
2024/01/31 06:33:11;;;;;;;0.52;0.10;;;5.30;99.90;;;;;;5010611;28;20046;-73
2024/01/31 06:35:39;;;;;;;1.15;0.10;;;5.30;99.90;;;;;;5010271;28;20151;-73
2024/01/31 06:38:05;;;;;;;2.13;0.52;;;5.30;99.90;;;;;;5011552;28;20402;-73
2024/01/31 06:40:31;;;;;;;0.95;0.10;;;5.30;99.90;;;;;;5011415;28;20037;-73
2024/01/31 06:42:58;;;;;;;2.83;0.20;;;5.30;99.90;;;;;;5011372;28;20125;-73
2024/01/31 06:45:26;;;;;;;0.55;0.10;;;5.30;99.90;;;;;;5011381;28;20038;-73
2024/01/31 06:47:52;;;;;;;0.85;0.28;;;5.30;99.90;;;;;;5011302;28;20040;-73
2024/01/31 06:50:18;;;;;;;1.05;0.40;;;5.40;99.90;;;;;;5010843;28;20034;-73
2024/01/31 06:52:46;;;;;;;2.30;0.17;;;5.30;99.90;;;;;;5011562;28;20165;-73
2024/01/31 06:55:12;;;;;;;3.50;0.57;;;5.40;99.90;;;;;;5011389;28;20041;-73
2024/01/31 06:57:38;;;;;;;0.52;0.10;;;5.40;99.90;;;;;;5009941;28;20496;-73
2024/01/31 07:00:06;;;;;;;2.28;0.20;;;5.40;99.90;;;;;;5011002;28;20049;-74
2024/01/31 07:02:31;;;;;;;0.30;0.20;;;5.40;99.90;;;;;;5010773;28;20153;-73
2024/01/31 07:04:57;;;;;;;0.65;0.20;;;5.40;99.90;;;;;;5011170;28;20120;-73
2024/01/31 07:07:23;;;;;;;0.93;0.22;;;5.40;99.90;;;;;;5010951;28;20120;-73
2024/01/31 07:09:48;;;;;;;2.28;0.30;;;5.50;99.90;;;;;;5011074;28;20369;-73
2024/01/31 07:12:14;;;;;;;0.25;0.20;;;5.50;99.90;;;;;;5010769;28;20077;-73
2024/01/31 07:14:42;;;;;;;0.95;0.38;;;5.50;99.90;;;;;;5011070;28;20116;-74
2024/01/31 07:17:08;;;;;;;2.45;0.20;;;5.50;99.90;;;;;;5010943;28;20116;-73
2024/01/31 07:19:34;;;;;;;1.35;0.20;;;5.50;99.90;;;;;;5011151;28;20516;-73
2024/01/31 07:21:59;;;;;;;2.08;1.02;;;5.50;99.90;;;;;;5010741;28;20034;-74
2024/01/31 07:24:25;;;;;;;0.68;0.22;;;5.50;99.90;;;;;;5010913;28;20037;-73
2024/01/31 07:26:51;;;;;;;2.65;0.30;;;5.50;99.90;;;;;;5010950;28;20044;-73
2024/01/31 07:29:16;;;;;;;0.38;0.20;;;5.50;99.90;;;;;;5010512;28;20044;-73
2024/01/31 07:31:42;;;;;;;1.13;0.50;;;5.50;99.90;;;;;;5010745;28;20531;-73
2024/01/31 07:34:08;;;;;;;2.80;0.57;;;5.50;99.90;;;;;;5009668;28;20514;-73
2024/01/31 07:36:33;;;;;;;0.77;0.22;;;5.50;99.90;;;;;;5012664;28;20034;-73
2024/01/31 07:38:59;;;;;;;1.27;0.20;;;5.50;99.90;;;;;;5014841;28;20044;-73
2024/01/31 07:41:24;;;;;;;0.25;0.22;;;5.50;99.90;;;;;;5014316;28;20462;-73
2024/01/31 07:43:50;;;;;;;4.47;0.90;;;5.50;99.90;;;;;;5014704;28;20096;-73
2024/01/31 07:46:16;;;;;;;1.95;0.15;;;5.50;99.90;;;;;;5014517;28;20174;-73
2024/01/31 07:48:42;;;;;;;1.98;0.47;;;5.50;99.90;;;;;;5014576;28;20037;-73
2024/01/31 07:51:07;;;;;;;0.60;0.20;;;5.50;99.90;;;;;;5013609;28;20052;-73
2024/01/31 07:53:33;;;;;;;0.17;0.13;;;5.50;99.90;;;;;;5013234;28;20038;-73
2024/01/31 07:55:59;;;;;;;1.23;0.50;;;5.50;99.90;;;;;;5013091;28;20036;-73
2024/01/31 07:58:24;;;;;;;0.90;0.40;;;5.50;99.90;;;;;;5014334;28;20092;-73
2024/01/31 08:00:50;;;;;;;1.95;0.43;;;5.50;99.90;;;;;;5014323;28;20080;-73
2024/01/31 08:03:16;;;;;;;0.60;0.30;;;5.50;99.90;;;;;;5013928;28;20103;-73
2024/01/31 08:05:41;;;;;;;2.78;0.57;;;5.50;99.90;;;;;;5013008;28;20404;-73
2024/01/31 08:08:07;;;;;;;0.75;0.35;;;5.50;99.90;;;;;;5014117;28;20049;-73
2024/01/31 08:10:33;;;;;;;1.38;0.68;;;5.60;99.90;;;;;;5014253;28;20107;-73
2024/01/31 08:12:59;;;;;;;0.82;0.45;;;5.60;99.90;;;;;;5012717;28;20053;-73
2024/01/31 08:15:24;;;;;;;1.25;0.52;;;5.50;99.90;;;;;;5014056;28;20034;-73
2024/01/31 08:17:50;;;;;;;0.65;0.32;;;5.60;99.90;;;;;;5013833;28;20044;-73
2024/01/31 08:20:16;;;;;;;0.85;0.40;;;5.60;99.90;;;;;;5014111;28;20060;-73
2024/01/31 08:22:41;;;;;;;1.95;0.45;;;5.60;99.90;;;;;;5013955;28;20049;-73
2024/01/31 08:25:08;;;;;;;0.95;0.40;;;5.60;99.90;;;;;;5029077;28;20127;-73
2024/01/31 08:27:34;;;;;;;1.23;0.40;;;5.70;99.90;;;;;;5013919;28;20053;-73
2024/01/31 08:29:59;;;;;;;2.78;0.82;;;5.60;99.90;;;;;;5013702;28;20038;-73
2024/01/31 08:32:25;;;;;;;2.05;0.70;;;5.70;99.90;;;;;;5013367;28;20037;-73
2024/01/31 08:34:51;;;;;;;1.75;0.80;;;5.70;99.90;;;;;;5012536;28;20045;-73
2024/01/31 08:37:16;;;;;;;1.88;0.63;;;5.70;99.90;;;;;;5012290;28;20104;-73
2024/01/31 08:39:42;;;;;;;2.80;0.57;;;5.70;99.90;;;;;;5013840;28;20136;-73
2024/01/31 08:42:08;;;;;;;3.25;1.00;;;5.70;99.90;;;;;;5013412;28;20499;-73
2024/01/31 08:44:34;;;;;;;2.28;0.77;;;5.70;99.90;;;;;;5012439;28;20423;-73
2024/01/31 08:47:00;;;;;;;2.20;0.80;;;5.70;99.90;;;;;;5012834;28;20038;-73
2024/01/31 08:49:25;;;;;;;2.70;0.90;;;5.70;99.90;;;;;;5012903;28;20037;-73
2024/01/31 08:51:53;;;;;;;3.10;0.77;;;5.80;99.90;;;;;;5013265;28;20559;-73
2024/01/31 08:54:19;;;;;;;2.08;0.98;;;5.80;99.90;;;;;;5013360;28;20447;-73
2024/01/31 08:56:45;;;;;;;2.05;0.68;;;5.80;99.90;;;;;;5013341;28;20042;-73
2024/01/31 08:59:10;;;;;;;1.48;0.70;;;5.80;99.90;;;;;;5013269;28;20042;-73
2024/01/31 09:01:36;;;;;;;5.72;1.50;;;5.80;99.90;;;;;;5012934;28;20042;-73
2024/01/31 09:04:02;;;;;;;1.73;0.70;;;5.80;99.90;;;;;;5012851;28;20366;-73
2024/01/31 09:06:29;;;;;;;3.35;1.00;;;5.80;99.90;;;;;;5013081;28;20040;-73
2024/01/31 09:08:54;;;;;;;4.25;1.25;;;5.90;99.90;;;;;;5012015;28;20038;-74
2024/01/31 09:11:20;;;;;;;3.15;0.98;;;5.90;99.90;;;;;;5013006;28;20147;-74
2024/01/31 09:13:47;;;;;;;3.70;1.00;;;5.90;99.90;;;;;;5012805;28;20033;-73
2024/01/31 09:16:12;;;;;;;5.82;1.25;;;5.90;99.90;;;;;;5027931;28;20057;-74
2024/01/31 09:18:39;;;;;;;2.85;1.10;;;6.00;99.90;;;;;;5011809;28;20042;-73
2024/01/31 09:21:04;;;;;;;1.80;0.73;;;6.00;99.90;;;;;;5012827;28;20087;-73
2024/01/31 09:23:30;;;;;;;2.42;0.80;;;6.00;99.90;;;;;;5011432;28;20125;-73
2024/01/31 09:25:56;;;;;;;0.88;0.60;;;6.00;99.90;;;;;;5013154;28;20034;-73
2024/01/31 09:28:21;;;;;;;3.47;1.25;;;6.00;99.90;;;;;;5012410;28;20034;-73
2024/01/31 09:30:47;;;;;;;1.60;0.82;;;6.00;99.90;;;;;;5011216;28;20048;-73
2024/01/31 09:33:12;;;;;;;2.30;0.90;;;6.10;99.90;;;;;;5012430;28;20123;-73
2024/01/31 09:35:39;;;;;;;1.55;0.70;;;6.10;99.90;;;;;;5012822;28;20120;-73
2024/01/31 09:38:05;;;;;;;2.58;0.93;;;6.10;99.90;;;;;;5012516;28;20134;-73
2024/01/31 09:40:31;;;;;;;2.38;1.00;;;6.10;99.90;;;;;;5011558;28;20049;-73
2024/01/31 09:42:57;;;;;;;2.92;1.35;;;6.20;99.90;;;;;;5012206;28;20068;-73
2024/01/31 09:45:25;;;;;;;2.35;1.00;;;6.20;99.90;;;;;;5012081;28;20053;-73
2024/01/31 09:47:52;;;;;;;2.35;0.98;;;6.20;99.90;;;;;;5011167;28;20117;-73
2024/01/31 09:50:19;;;;;;;2.53;0.77;;;6.20;99.90;;;;;;5010906;28;20053;-73
2024/01/31 09:52:50;;;;;;;3.33;1.35;;;6.20;99.90;;;;;;5012199;28;20046;-73
2024/01/31 09:55:16;;;;;;;3.13;1.25;;;6.20;99.90;;;;;;5012087;28;20038;-73
2024/01/31 09:57:42;;;;;;;2.60;0.90;;;6.30;99.90;;;;;;5012054;28;20073;-73
2024/01/31 10:00:09;;;;;;;2.05;0.73;;;6.30;99.90;;;;;;5012307;28;20064;-73
2024/01/31 10:02:36;;;;;;;1.73;0.88;;;6.30;99.90;;;;;;5012068;28;20097;-74
2024/01/31 10:05:03;;;;;;;1.98;0.95;;;6.30;99.90;;;;;;5011904;28;20887;-73
2024/01/31 10:07:33;;;;;;;1.85;0.90;;;6.30;99.90;;;;;;5011890;28;20492;-73
2024/01/31 10:09:59;;;;;;;2.38;1.13;;;6.30;99.90;;;;;;5011900;28;20046;-73
2024/01/31 10:12:26;;;;;;;3.00;1.00;;;6.40;99.90;;;;;;5011486;28;20053;-73
2024/01/31 10:14:52;;;;;;;1.80;1.02;;;6.30;99.90;;;;;;5010389;28;20086;-73
2024/01/31 10:17:20;;;;;;;2.47;1.15;;;6.40;99.90;;;;;;5010376;28;20518;-74
2024/01/31 10:19:46;;;;;;;2.55;1.25;;;6.40;99.90;;;;;;5011785;28;20080;-73
2024/01/31 10:22:12;;;;;;;1.58;0.95;;;6.40;99.90;;;;;;5010496;28;20046;-73
2024/01/31 10:24:45;;;;;;;2.35;0.75;;;6.40;99.90;;;;;;5010236;28;20127;-73
2024/01/31 10:27:11;;;;;;;2.00;1.05;;;6.40;99.90;;;;;;5011692;28;20038;-73
2024/01/31 10:29:39;;;;;;;1.77;0.80;;;6.50;99.90;;;;;;5011473;28;20029;-73
2024/01/31 10:32:06;;;;;;;3.05;0.90;;;6.50;99.90;;;;;;5011595;28;20048;-73
2024/01/31 10:34:33;;;;;;;2.20;0.82;;;6.50;99.90;;;;;;5011449;28;20041;-74
2024/01/31 10:37:00;;;;;;;2.08;1.10;;;6.50;99.90;;;;;;5011566;28;20045;-73
2024/01/31 10:39:27;;;;;;;2.25;0.80;;;6.50;99.90;;;;;;5011028;28;20506;-74
2024/01/31 10:41:55;;;;;;;5.15;1.20;;;6.50;99.90;;;;;;5011378;28;20053;-73
2024/01/31 10:44:21;;;;;;;4.60;1.13;;;6.60;99.90;;;;;;5009530;28;20149;-73
2024/01/31 10:46:47;;;;;;;2.92;1.30;;;6.60;99.90;;;;;;5009678;28;20034;-73
2024/01/31 10:49:16;;;;;;;2.25;1.13;;;6.60;99.90;;;;;;5011169;28;20117;-73
2024/01/31 10:51:46;;;;;;;1.75;1.05;;;6.60;99.90;;;;;;5011267;28;20106;-73
2024/01/31 10:54:13;;;;;;;2.45;0.90;;;6.60;99.90;;;;;;5026364;28;20087;-72
2024/01/31 10:56:39;;;;;;;2.30;0.88;;;6.60;99.90;;;;;;5011176;28;20042;-73
2024/01/31 10:59:08;;;;;;;3.05;1.00;;;6.60;99.90;;;;;;5011284;28;20076;-73
2024/01/31 11:01:34;;;;;;;3.38;1.40;;;6.60;99.90;;;;;;5011064;28;20046;-73
2024/01/31 11:04:07;;;;;;;4.95;1.40;;;6.70;99.90;;;;;;5011078;28;20114;-73
2024/01/31 11:06:40;;;;;;;4.45;1.35;;;6.70;99.90;;;;;;5010653;28;20048;-74
2024/01/31 11:09:06;;;;;;;3.92;1.58;;;6.70;99.90;;;;;;5011212;28;20446;-73
2024/01/31 11:11:33;;;;;;;2.50;1.10;;;6.70;99.90;;;;;;5010562;28;20408;-73
2024/01/31 11:14:14;;;;;;;4.65;1.40;;;6.70;99.90;;;;;;5011014;28;20398;-73
2024/01/31 11:16:41;;;;;;;3.08;1.27;;;6.70;99.90;;;;;;5011126;28;20073;-73
2024/01/31 11:19:07;;;;;;;2.25;1.17;;;6.70;99.90;;;;;;5010751;28;20459;-73
2024/01/31 11:21:39;;;;;;;3.72;1.33;;;6.70;99.90;;;;;;5010640;28;20050;-73
2024/01/31 11:24:05;;;;;;;2.30;1.15;;;6.80;99.90;;;;;;5009874;28;20380;-73
2024/01/31 11:26:33;;;;;;;2.85;1.33;;;6.80;99.90;;;;;;5010730;28;20127;-73
2024/01/31 11:29:01;;;;;;;2.53;1.40;;;6.80;99.90;;;;;;5010793;28;20041;-73
2024/01/31 11:31:28;;;;;;;5.03;1.70;;;6.80;99.90;;;;;;5010446;28;20084;-73
2024/01/31 11:33:56;;;;;;;2.97;1.40;;;6.80;99.90;;;;;;5010888;28;20042;-73
2024/01/31 11:36:22;;;;;;;3.10;1.50;;;6.80;99.90;;;;;;5010778;28;20400;-73
2024/01/31 11:38:47;;;;;;;3.08;1.70;;;6.80;99.90;;;;;;5010777;28;20042;-73
2024/01/31 11:41:13;;;;;;;3.42;1.70;;;6.80;99.90;;;;;;5010680;28;20041;-73
2024/01/31 11:43:39;;;;;;;3.17;1.60;;;6.80;99.90;;;;;;5010753;28;20042;-73
2024/01/31 11:46:05;;;;;;;4.13;2.03;;;6.90;99.90;;;;;;5009243;28;20041;-73
2024/01/31 11:48:32;;;;;;;4.30;2.13;;;6.90;99.90;;;;;;5010459;28;20048;-73
2024/01/31 11:50:57;;;;;;;4.55;1.92;;;6.90;99.90;;;;;;5010536;28;20041;-73
2024/01/31 11:53:24;;;;;;;4.15;2.08;;;6.90;99.90;;;;;;5010660;28;20041;-74
2024/01/31 11:55:51;;;;;;;3.65;2.30;;;6.90;99.90;;;;;;5011010;28;20077;-73
2024/01/31 11:58:16;;;;;;;4.38;2.25;;;6.90;99.90;;;;;;5010495;28;20070;-73
2024/01/31 12:00:42;;;;;;;4.10;1.60;;;6.90;99.90;;;;;;5009169;28;20528;-73
2024/01/31 12:03:08;;;;;;;3.05;1.70;;;6.90;99.90;;;;;;5010787;28;20077;-73
2024/01/31 12:05:34;;;;;;;3.60;1.60;;;6.90;99.90;;;;;;5009422;28;20038;-74
2024/01/31 12:08:00;;;;;;;3.58;1.70;;;6.90;99.90;;;;;;5010569;28;20515;-73
2024/01/31 12:10:26;;;;;;;3.75;1.70;;;6.90;99.90;;;;;;5010349;28;20041;-73
2024/01/31 12:12:53;;;;;;;5.05;2.00;;;6.90;99.90;;;;;;5010589;28;20043;-73
2024/01/31 12:15:19;;;;;;;4.30;1.50;;;6.90;99.90;;;;;;5008842;28;20531;-74
2024/01/31 12:17:46;;;;;;;5.03;1.65;;;6.90;99.90;;;;;;5010331;28;20085;-73
2024/01/31 12:20:12;;;;;;;3.15;1.60;;;6.90;99.90;;;;;;5010726;28;20129;-73
2024/01/31 12:22:39;;;;;;;4.32;1.70;;;7.00;99.90;;;;;;5012324;28;20442;-73
2024/01/31 12:25:05;;;;;;;3.78;1.83;;;7.00;99.90;;;;;;5013876;28;20405;-73
2024/01/31 12:27:32;;;;;;;3.38;1.80;;;7.00;99.90;;;;;;5013902;28;20049;-73
2024/01/31 12:29:58;;;;;;;3.55;2.10;;;7.00;99.90;;;;;;5012336;28;20053;-73
2024/01/31 12:32:25;;;;;;;4.63;2.00;;;7.00;99.90;;;;;;5013857;28;20042;-73
2024/01/31 12:34:50;;;;;;;5.63;2.00;;;7.00;99.90;;;;;;5013881;28;20046;-73
2024/01/31 12:37:16;;;;;;;2.30;1.38;;;7.10;99.90;;;;;;5012554;28;20056;-73
2024/01/31 12:39:42;;;;;;;4.03;1.77;;;7.10;99.90;;;;;;5013754;28;20048;-73
2024/01/31 12:42:09;;;;;;;4.55;1.67;;;7.10;99.90;;;;;;5013633;28;20057;-73
2024/01/31 12:44:34;;;;;;;3.92;1.60;;;7.10;99.90;;;;;;5012163;28;20042;-73
2024/01/31 12:47:05;;;;;;;3.45;1.38;;;7.10;99.90;;;;;;5012403;28;20104;-73
2024/01/31 12:49:33;;;;;;;2.70;1.45;;;7.10;99.90;;;;;;5012137;28;20041;-73
2024/01/31 12:52:01;;;;;;;4.05;1.48;;;7.10;99.90;;;;;;5013646;28;20075;-73